Time;durP1;ratioP1;P1;durP2;ratioP2;P2;SDS_P1;SDS_P2;PMS_P1;PMS_P2;Temp;Humidity;BMP_temperature;BMP_pressure;BME280_temperature;BME280_humidity;BME280_pressure;Samples;Min_cycle;Max_cycle;Signal;HPM_P1;HPM_P2
2021/08/26 00:07:20;;;;;;;0.10;0.10;;;;;;;12.41;57.76;98047.39;114393;1223;22332;-83
2021/08/26 00:09:46;;;;;;;0.10;0.10;;;;;;;12.38;57.74;98048.13;114334;1218;137309;-82
2021/08/26 00:12:12;;;;;;;0.10;0.10;;;;;;;12.36;58.00;98042.27;114301;1218;137655;-82
2021/08/26 00:14:38;;;;;;;0.10;0.10;;;;;;;12.34;57.99;98039.80;114307;1216;137464;-82
2021/08/26 00:17:04;;;;;;;0.10;0.10;;;;;;;12.33;58.10;98038.45;114319;1218;137734;-82
2021/08/26 00:19:30;;;;;;;0.10;0.10;;;;;;;12.33;58.32;98034.29;114446;1222;22349;-83
2021/08/26 00:21:57;;;;;;;0.10;0.10;;;;;;;12.38;58.37;98031.14;114205;1220;138487;-83
2021/08/26 00:24:23;;;;;;;0.10;0.10;;;;;;;12.43;58.66;98031.10;114190;1220;138218;-83
2021/08/26 00:26:48;;;;;;;0.00;0.00;;;;;;;12.48;58.83;98029.60;114250;1219;137422;-83
2021/08/26 00:29:14;;;;;;;0.10;0.10;;;;;;;12.51;58.65;98021.79;114304;1219;137891;-83
2021/08/26 00:31:40;;;;;;;0.10;0.10;;;;;;;12.55;58.56;98024.06;114367;1219;22304;-83
2021/08/26 00:34:05;;;;;;;0.10;0.10;;;;;;;12.55;58.60;98022.52;114250;1218;137561;-83
2021/08/26 00:36:31;;;;;;;0.10;0.10;;;;;;;12.54;58.73;98021.86;114259;1216;138040;-82
2021/08/26 00:38:56;;;;;;;0.00;0.00;;;;;;;12.53;58.69;98015.64;114270;1220;138066;-82
2021/08/26 00:41:24;;;;;;;0.00;0.00;;;;;;;12.51;58.50;98015.52;114255;1219;137656;-82
2021/08/26 00:43:50;;;;;;;0.10;0.10;;;;;;;12.51;58.45;98011.82;114316;1218;138363;-83
2021/08/26 00:46:16;;;;;;;0.10;0.10;;;;;;;12.49;58.67;98011.35;114354;1223;22381;-83
2021/08/26 00:48:43;;;;;;;0.10;0.10;;;;;;;12.46;58.69;98006.00;114304;1222;137351;-83
2021/08/26 00:51:09;;;;;;;0.10;0.10;;;;;;;12.43;58.69;98003.28;114265;1218;137472;-82
2021/08/26 00:53:35;;;;;;;0.00;0.00;;;;;;;12.40;58.89;98009.33;114256;1221;138127;-82
2021/08/26 00:56:00;;;;;;;0.10;0.10;;;;;;;12.38;58.80;98003.77;114267;1224;137510;-82
2021/08/26 00:58:29;;;;;;;0.10;0.10;;;;;;;12.34;58.90;98006.33;114455;1216;22370;-83
2021/08/26 01:01:07;;;;;;;0.10;0.10;;;;;;;12.30;58.96;98003.63;114272;1225;137400;-82
2021/08/26 01:04:06;;;;;;;0.10;0.10;;;;;;;12.25;59.25;97997.35;114315;1219;137539;-82
2021/08/26 01:06:57;;;;;;;0.00;0.00;;;;;;;12.19;59.28;97996.60;114320;1221;137576;-83
2021/08/26 01:09:28;;;;;;;0.10;0.10;;;;;;;12.15;59.43;97997.89;114433;1223;137488;-82
2021/08/26 01:11:54;;;;;;;;;;;;;;;12.10;59.62;98000.42;114265;1220;137436;-82
2021/08/26 01:14:20;;;;;;;0.10;0.10;;;;;;;12.06;59.75;98000.81;114343;1218;124197;-82
2021/08/26 01:16:45;;;;;;;0.00;0.00;;;;;;;12.02;59.79;98001.22;114570;1228;22272;-84
2021/08/26 01:19:11;;;;;;;0.00;0.00;;;;;;;11.99;59.67;98001.17;114323;1219;139121;-84
2021/08/26 01:21:36;;;;;;;0.10;0.10;;;;;;;11.96;60.23;98006.52;114259;1220;137534;-84
2021/08/26 01:24:07;;;;;;;0.10;0.10;;;;;;;11.93;60.07;98002.77;114480;1218;137543;-83
2021/08/26 01:26:37;;;;;;;0.00;0.00;;;;;;;11.93;60.27;97999.21;114276;1219;137903;-84
2021/08/26 01:29:06;;;;;;;0.10;0.10;;;;;;;11.96;60.33;97996.40;114264;1217;138647;-84
2021/08/26 01:31:32;;;;;;;0.10;0.10;;;;;;;12.00;60.51;97992.13;114347;1224;22343;-84
2021/08/26 01:34:00;;;;;;;0.10;0.10;;;;;;;12.06;60.59;97992.63;114253;1220;137468;-84
2021/08/26 01:36:34;;;;;;;0.10;0.10;;;;;;;12.11;60.63;97990.36;114280;1219;137566;-84
2021/08/26 01:39:01;;;;;;;0.10;0.10;;;;;;;12.16;60.60;97990.30;114262;1220;138269;-84
2021/08/26 01:41:50;;;;;;;0.00;0.00;;;;;;;12.18;60.43;97992.48;114287;1219;137850;-84
2021/08/26 01:44:19;;;;;;;0.10;0.10;;;;;;;12.20;60.51;97989.77;114216;1219;137786;-83
2021/08/26 01:46:44;;;;;;;0.10;0.10;;;;;;;12.20;60.22;97994.17;114578;1221;22276;-83
2021/08/26 01:49:10;;;;;;;0.10;0.10;;;;;;;12.19;60.38;97990.04;114246;1216;137228;-82
2021/08/26 01:51:37;;;;;;;0.10;0.10;;;;;;;12.17;60.35;97984.33;114270;1220;137740;-82
2021/08/26 01:54:03;;;;;;;0.10;0.10;;;;;;;12.15;60.36;97988.40;114248;1219;137699;-82
2021/08/26 01:56:29;;;;;;;0.10;0.10;;;;;;;12.12;60.34;97993.02;114252;1219;137751;-83
2021/08/26 01:58:54;;;;;;;0.00;0.00;;;;;;;12.10;60.51;97992.63;114246;1218;137733;-83
2021/08/26 02:01:19;;;;;;;0.20;0.20;;;;;;;12.07;60.50;97983.73;114406;1221;22906;-83
2021/08/26 02:03:45;;;;;;;0.10;0.10;;;;;;;12.04;60.55;97983.39;114449;1217;137414;-83
2021/08/26 02:06:10;;;;;;;0.10;0.10;;;;;;;12.01;60.65;97980.89;114239;1219;137914;-83
2021/08/26 02:08:36;;;;;;;0.00;0.00;;;;;;;11.98;60.82;97982.27;114281;1218;137930;-83
2021/08/26 02:11:02;;;;;;;0.10;0.10;;;;;;;11.96;61.05;97978.77;114249;1219;137814;-83
2021/08/26 02:13:27;;;;;;;0.10;0.10;;;;;;;11.93;60.98;97978.96;114348;1226;22347;-83
2021/08/26 02:15:53;;;;;;;0.10;0.10;;;;;;;11.91;61.05;97978.52;114360;1218;137676;-83
2021/08/26 02:18:18;;;;;;;0.10;0.10;;;;;;;11.89;61.44;97972.41;114330;1219;137393;-82
2021/08/26 02:20:44;;;;;;;0.10;0.10;;;;;;;11.86;61.27;97970.97;114287;1219;137677;-83
2021/08/26 02:23:09;;;;;;;0.10;0.10;;;;;;;11.86;61.31;97974.61;114413;1218;138614;-83
2021/08/26 02:25:35;;;;;;;0.00;0.00;;;;;;;11.89;61.69;97979.18;114366;1223;22312;-83
2021/08/26 02:28:00;;;;;;;0.10;0.10;;;;;;;11.92;61.99;97974.94;114242;1216;138126;-83
2021/08/26 02:30:26;;;;;;;0.10;0.10;;;;;;;11.96;62.23;97974.37;114429;1218;137343;-83
2021/08/26 02:32:52;;;;;;;0.10;0.10;;;;;;;11.98;62.27;97973.11;114320;1218;137578;-83
2021/08/26 02:35:17;;;;;;;0.00;0.00;;;;;;;11.99;62.18;97971.73;114464;1218;138707;-83
2021/08/26 02:37:43;;;;;;;0.10;0.10;;;;;;;12.00;62.19;97970.60;114547;1222;22378;-83
2021/08/26 02:40:09;;;;;;;0.00;0.00;;;;;;;12.01;62.13;97970.63;114259;1217;137193;-83
2021/08/26 02:42:34;;;;;;;0.10;0.10;;;;;;;12.01;62.10;97968.08;114437;1218;137942;-82
2021/08/26 02:45:00;;;;;;;0.10;0.10;;;;;;;12.00;62.25;97967.30;114304;1221;137289;-82
2021/08/26 02:47:25;;;;;;;0.00;0.00;;;;;;;11.99;62.31;97972.73;114341;1219;137949;-82
2021/08/26 02:49:51;;;;;;;0.10;0.10;;;;;;;11.97;62.15;97972.88;114269;1218;138119;-82
2021/08/26 02:52:16;;;;;;;0.10;0.10;;;;;;;11.94;62.30;97972.23;114585;1222;23040;-82
2021/08/26 02:54:42;;;;;;;0.10;0.10;;;;;;;11.91;62.44;97974.34;114483;1217;137424;-82
2021/08/26 02:57:08;;;;;;;0.00;0.00;;;;;;;11.88;62.51;97973.60;114415;1223;138522;-82
2021/08/26 02:59:33;;;;;;;0.10;0.10;;;;;;;11.85;62.70;97976.25;114481;1217;138171;-81
2021/08/26 03:01:59;;;;;;;0.10;0.10;;;;;;;11.83;62.89;97974.38;114437;1217;137843;-82
2021/08/26 03:04:24;;;;;;;0.00;0.00;;;;;;;11.79;63.03;97976.23;114467;1223;22315;-81
2021/08/26 03:06:50;;;;;;;0.00;0.00;;;;;;;11.75;63.00;97975.86;114413;1218;137838;-81
2021/08/26 03:09:15;;;;;;;0.10;0.10;;;;;;;11.75;63.34;97972.56;114458;1218;137877;-82
2021/08/26 03:11:41;;;;;;;0.10;0.10;;;;;;;11.80;63.42;97975.96;114406;1217;138451;-83
2021/08/26 03:14:06;;;;;;;0.10;0.10;;;;;;;11.85;63.71;97973.08;114398;1217;138909;-84
2021/08/26 03:16:32;;;;;;;0.10;0.10;;;;;;;11.88;64.05;97973.98;114549;1223;23024;-84
2021/08/26 03:18:57;;;;;;;0.10;0.10;;;;;;;11.91;63.73;97974.73;114448;1218;137297;-83
2021/08/26 03:21:23;;;;;;;0.10;0.10;;;;;;;11.93;64.02;97973.34;114230;1220;137576;-84
2021/08/26 03:23:48;;;;;;;0.10;0.10;;;;;;;11.95;64.10;97973.79;114482;1217;137480;-84
2021/08/26 03:26:14;;;;;;;0.10;0.10;;;;;;;11.95;63.82;97966.02;114278;1220;137779;-82
2021/08/26 03:28:39;;;;;;;0.10;0.10;;;;;;;11.94;63.81;97969.52;114542;1223;22405;-82
2021/08/26 03:31:04;;;;;;;0.10;0.10;;;;;;;11.94;63.72;97967.96;114480;1220;137973;-81
2021/08/26 03:33:30;;;;;;;0.00;0.00;;;;;;;11.93;63.77;97970.39;114450;1217;137940;-81
2021/08/26 03:35:56;;;;;;;0.00;0.00;;;;;;;11.91;63.81;97970.41;114260;1219;137424;-80
2021/08/26 03:38:21;;;;;;;0.10;0.10;;;;;;;11.89;64.17;97968.00;114425;1220;138165;-80
2021/08/26 03:40:47;;;;;;;0.00;0.00;;;;;;;11.85;64.30;97970.86;114470;1218;137550;-81
2021/08/26 03:43:12;;;;;;;0.10;0.10;;;;;;;11.82;64.39;97964.19;114565;1228;22314;-81
2021/08/26 03:45:38;;;;;;;0.00;0.00;;;;;;;11.79;64.33;97965.09;114463;1217;137634;-82
2021/08/26 03:48:04;;;;;;;0.10;0.10;;;;;;;11.78;64.48;97962.94;114263;1216;138349;-82
2021/08/26 03:50:29;;;;;;;0.10;0.10;;;;;;;11.78;64.46;97958.02;114481;1217;137997;-83
2021/08/26 03:52:55;;;;;;;0.10;0.10;;;;;;;11.82;64.79;97958.55;114332;1217;138510;-83
2021/08/26 03:55:21;;;;;;;0.00;0.00;;;;;;;11.85;65.07;97956.38;114577;1220;22313;-83
2021/08/26 03:57:46;;;;;;;0.10;0.10;;;;;;;11.90;65.09;97954.33;114347;1220;137443;-82
2021/08/26 04:00:12;;;;;;;0.10;0.10;;;;;;;11.94;65.13;97951.30;114471;1218;137583;-82
2021/08/26 04:02:37;;;;;;;0.10;0.10;;;;;;;11.96;64.95;97949.48;114427;1219;137761;-82
2021/08/26 04:05:03;;;;;;;0.00;0.00;;;;;;;11.98;65.00;97949.17;114455;1220;137718;-82
2021/08/26 04:07:31;;;;;;;0.10;0.10;;;;;;;12.00;64.73;97942.61;114526;1223;22263;-83
2021/08/26 04:09:58;;;;;;;0.10;0.10;;;;;;;12.01;64.83;97938.94;114245;1220;137342;-83
2021/08/26 04:12:25;;;;;;;0.00;0.00;;;;;;;12.01;64.99;97940.17;114320;1217;137670;-83
2021/08/26 04:14:51;;;;;;;0.10;0.10;;;;;;;12.00;65.05;97932.70;114413;1219;138017;-82
2021/08/26 04:17:16;;;;;;;0.10;0.10;;;;;;;11.99;64.83;97931.95;114385;1220;137641;-82
2021/08/26 04:19:42;;;;;;;0.00;0.00;;;;;;;11.98;64.90;97929.52;114325;1228;22260;-83
2021/08/26 04:22:07;;;;;;;0.10;0.10;;;;;;;11.96;65.05;97924.73;114443;1219;137301;-83
2021/08/26 04:24:33;;;;;;;0.10;0.10;;;;;;;11.94;65.16;97921.13;114342;1218;137791;-82
2021/08/26 04:26:58;;;;;;;0.10;0.10;;;;;;;11.92;65.14;97924.28;114339;1220;137464;-82
2021/08/26 04:29:24;;;;;;;0.10;0.10;;;;;;;11.92;65.11;97927.45;114427;1223;138285;-82
2021/08/26 04:31:49;;;;;;;0.10;0.10;;;;;;;11.95;65.38;97928.77;114347;1218;138441;-82
2021/08/26 04:34:15;;;;;;;0.10;0.10;;;;;;;11.98;65.52;97932.27;114593;1220;22609;-82
2021/08/26 04:36:40;;;;;;;0.10;0.10;;;;;;;12.01;65.28;97928.70;114439;1223;137151;-82
2021/08/26 04:39:06;;;;;;;0.10;0.10;;;;;;;12.05;65.53;97933.61;114304;1223;137604;-83
2021/08/26 04:41:31;;;;;;;0.10;0.10;;;;;;;12.09;65.32;97926.83;114473;1217;137538;-84
2021/08/26 04:43:57;;;;;;;0.10;0.10;;;;;;;12.12;65.69;97928.64;114332;1216;137534;-83
2021/08/26 04:46:22;;;;;;;0.20;0.20;;;;;;;12.15;65.46;97927.35;114424;1224;22345;-84
2021/08/26 04:48:48;;;;;;;0.00;0.00;;;;;;;12.17;65.53;97927.84;114423;1220;137599;-84
2021/08/26 04:51:13;;;;;;;0.10;0.10;;;;;;;12.20;65.41;97924.61;114326;1221;138004;-82
2021/08/26 04:53:39;;;;;;;0.10;0.10;;;;;;;12.22;65.50;97917.29;114452;1218;137631;-82
2021/08/26 04:56:05;;;;;;;0.10;0.10;;;;;;;12.25;65.36;97916.52;114466;1220;137469;-83
2021/08/26 04:58:30;;;;;;;0.10;0.10;;;;;;;12.28;65.43;97914.09;114618;1220;23010;-82
2021/08/26 05:00:56;;;;;;;0.10;0.10;;;;;;;12.30;65.42;97908.99;114377;1219;137710;-81
2021/08/26 05:03:21;;;;;;;0.10;0.10;;;;;;;12.33;65.54;97907.93;114385;1217;137418;-82
2021/08/26 05:05:47;;;;;;;0.10;0.10;;;;;;;12.35;65.67;97906.24;114292;1220;137400;-82
2021/08/26 05:08:12;;;;;;;0.10;0.10;;;;;;;12.40;65.66;97911.11;114243;1219;138331;-81
2021/08/26 05:10:39;;;;;;;0.10;0.10;;;;;;;12.48;65.81;97905.92;114586;1223;22098;-82
2021/08/26 05:13:07;;;;;;;0.10;0.10;;;;;;;12.58;65.84;97906.41;114312;1222;138134;-82
2021/08/26 05:15:36;;;;;;;0.10;0.10;;;;;;;12.66;65.99;97902.22;114437;1218;137480;-82
2021/08/26 05:18:04;;;;;;;0.00;0.00;;;;;;;12.75;65.92;97903.01;114331;1223;137460;-82
2021/08/26 05:20:31;;;;;;;0.10;0.10;;;;;;;12.85;65.63;97901.06;114391;1211;138178;-83
2021/08/26 05:22:57;;;;;;;0.10;0.10;;;;;;;12.93;65.47;97905.28;114348;1219;137927;-79
2021/08/26 05:25:23;;;;;;;0.10;0.10;;;;;;;13.01;65.27;97903.46;114549;1222;22347;-79
2021/08/26 05:27:49;;;;;;;0.10;0.10;;;;;;;13.11;65.25;97901.77;114366;1221;137384;-79
2021/08/26 05:30:14;;;;;;;0.20;0.20;;;;;;;13.19;64.97;97899.56;114396;1217;137623;-79
2021/08/26 05:32:40;;;;;;;0.10;0.10;;;;;;;13.27;64.98;97896.98;114305;1221;137712;-79
2021/08/26 05:35:05;;;;;;;0.10;0.10;;;;;;;13.34;64.82;97896.75;114380;1222;137423;-79
2021/08/26 05:37:31;;;;;;;0.10;0.10;;;;;;;13.42;64.73;97894.07;114591;1221;22348;-77
2021/08/26 05:39:56;;;;;;;0.20;0.20;;;;;;;13.50;64.63;97887.27;114457;1217;137380;-80
2021/08/26 05:42:23;;;;;;;0.10;0.10;;;;;;;13.58;64.20;97886.89;114412;1217;138160;-80
2021/08/26 05:44:49;;;;;;;0.10;0.10;;;;;;;13.65;63.49;97889.13;114423;1222;137667;-80
2021/08/26 05:47:15;;;;;;;0.20;0.20;;;;;;;13.74;63.41;97886.05;114205;1221;137760;-80
2021/08/26 05:49:40;;;;;;;0.10;0.10;;;;;;;13.83;63.63;97890.32;114388;1223;22249;-80
2021/08/26 05:52:06;;;;;;;0.10;0.10;;;;;;;13.91;62.93;97890.55;114418;1217;137141;-84
2021/08/26 05:54:31;;;;;;;0.20;0.20;;;;;;;14.00;62.59;97891.42;114461;1221;137498;-84
2021/08/26 05:56:59;;;;;;;0.20;0.20;;;;;;;14.13;62.13;97900.16;114451;1218;138188;-84
2021/08/26 05:59:26;;;;;;;0.20;0.20;;;;;;;14.28;62.01;97898.25;114358;1221;138808;-84
2021/08/26 06:01:52;;;;;;;0.10;0.10;;;;;;;14.45;61.86;97901.83;114268;1223;138007;-84
2021/08/26 06:04:17;;;;;;;0.20;0.20;;;;;;;14.62;61.28;97902.38;114430;1224;22359;-84
2021/08/26 06:06:43;;;;;;;0.10;0.10;;;;;;;14.78;60.94;97910.21;114318;1229;137229;-84
2021/08/26 06:09:09;;;;;;;0.10;0.10;;;;;;;14.91;60.26;97907.01;114303;1221;137380;-86
2021/08/26 06:11:35;;;;;;;0.10;0.10;;;;;;;15.01;59.81;97901.81;114378;1221;137842;-85
2021/08/26 06:14:00;;;;;;;0.20;0.20;;;;;;;15.12;59.76;97902.64;114358;1218;137431;-85
2021/08/26 06:16:27;;;;;;;0.10;0.10;;;;;;;15.25;59.65;97913.02;114436;1226;22352;-88
2021/08/26 06:18:53;;;;;;;0.10;0.10;;;;;;;15.38;59.23;97912.16;114288;1220;137410;-85
2021/08/26 06:21:18;;;;;;;0.20;0.20;;;;;;;15.50;58.94;97913.29;114465;1220;138689;-86
2021/08/26 06:23:44;;;;;;;0.20;0.20;;;;;;;15.58;58.18;97910.37;114310;1218;137402;-85
2021/08/26 06:26:10;;;;;;;0.20;0.20;;;;;;;15.64;58.06;97909.98;114343;1219;137609;-85
2021/08/26 06:28:35;;;;;;;0.30;0.30;;;;;;;15.72;57.66;97916.06;114424;1217;23023;-85
2021/08/26 06:31:01;;;;;;;0.10;0.10;;;;;;;15.78;57.64;97914.33;114272;1221;137568;-85
2021/08/26 06:33:27;;;;;;;0.10;0.10;;;;;;;15.86;57.59;97911.64;114227;1220;137482;-86
2021/08/26 06:35:53;;;;;;;0.10;0.10;;;;;;;15.95;57.43;97910.59;114383;1217;138142;-85
2021/08/26 06:38:18;;;;;;;0.20;0.20;;;;;;;16.03;56.99;97906.49;114224;1221;138650;-85
2021/08/26 06:40:44;;;;;;;0.10;0.10;;;;;;;16.12;56.66;97910.17;114438;1222;22366;-85
2021/08/26 06:43:10;;;;;;;0.20;0.20;;;;;;;16.19;56.50;97909.14;114382;1218;137573;-85
2021/08/26 06:45:35;;;;;;;0.20;0.20;;;;;;;16.28;56.50;97909.33;114236;1217;137580;-85
2021/08/26 06:48:01;;;;;;;0.20;0.20;;;;;;;16.37;56.48;97912.63;114262;1220;137611;-85
2021/08/26 06:50:27;;;;;;;0.20;0.20;;;;;;;16.46;56.19;97910.06;114273;1220;137768;-85
2021/08/26 06:52:52;;;;;;;0.20;0.20;;;;;;;16.55;55.54;97909.14;114426;1217;138116;-85
2021/08/26 06:55:18;;;;;;;0.20;0.20;;;;;;;16.61;55.38;97902.11;114414;1222;22225;-85
2021/08/26 06:57:44;;;;;;;0.20;0.20;;;;;;;16.71;55.37;97905.55;114361;1218;137566;-85
2021/08/26 07:00:10;;;;;;;0.10;0.10;;;;;;;16.81;55.21;97905.38;114398;1217;137659;-86
2021/08/26 07:02:35;;;;;;;0.20;0.20;;;;;;;16.93;55.22;97905.29;114441;1218;137398;-85
2021/08/26 07:05:02;;;;;;;0.20;0.20;;;;;;;17.06;55.15;97909.06;114330;1217;137820;-85
2021/08/26 07:07:27;;;;;;;0.30;0.30;;;;;;;17.20;54.78;97904.09;114416;1224;22407;-85
2021/08/26 07:09:53;;;;;;;0.20;0.20;;;;;;;17.32;54.43;97907.77;114452;1218;137795;-85
2021/08/26 07:12:19;;;;;;;0.30;0.30;;;;;;;17.44;54.12;97911.23;114341;1221;137722;-85
2021/08/26 07:14:44;;;;;;;0.30;0.30;;;;;;;17.54;53.69;97909.52;114475;1222;137282;-85
2021/08/26 07:17:10;;;;;;;0.20;0.20;;;;;;;17.64;53.62;97909.65;114350;1224;137621;-85
2021/08/26 07:19:35;;;;;;;0.20;0.20;;;;;;;17.74;53.27;97906.33;114394;1224;23133;-85
2021/08/26 07:22:01;;;;;;;0.20;0.20;;;;;;;17.84;53.07;97906.23;114321;1221;137305;-85
2021/08/26 07:24:26;;;;;;;0.20;0.20;;;;;;;17.98;52.91;97910.15;114340;1224;138115;-85
2021/08/26 07:26:52;;;;;;;0.20;0.20;;;;;;;18.13;52.72;97906.07;114440;1218;137428;-86
2021/08/26 07:29:18;;;;;;;0.20;0.20;;;;;;;18.28;52.17;97908.59;114410;1218;137708;-85
2021/08/26 07:31:45;;;;;;;0.10;0.10;;;;;;;18.41;51.67;97908.27;114619;1221;23046;-86
2021/08/26 07:34:11;;;;;;;0.20;0.20;;;;;;;18.54;51.36;97906.31;114378;1218;136970;-85
2021/08/26 07:36:37;;;;;;;0.30;0.30;;;;;;;18.72;51.08;97906.45;114429;1218;137571;-85
2021/08/26 07:39:02;;;;;;;0.20;0.20;;;;;;;18.88;50.77;97906.14;114298;1221;137536;-85
2021/08/26 07:41:30;;;;;;;0.30;0.30;;;;;;;19.03;50.38;97903.16;114290;1221;137850;-85
2021/08/26 07:43:57;;;;;;;0.20;0.20;;;;;;;19.20;49.60;97902.37;114481;1217;137923;-85
2021/08/26 07:46:23;;;;;;;0.20;0.20;;;;;;;19.36;49.06;97902.34;114493;1221;23115;-85
2021/08/26 07:48:48;;;;;;;0.30;0.30;;;;;;;19.48;48.72;97892.75;114407;1218;137211;-85
2021/08/26 07:51:14;;;;;;;0.30;0.30;;;;;;;19.59;48.55;97891.58;114379;1218;137348;-85
2021/08/26 07:53:40;;;;;;;0.20;0.20;;;;;;;19.71;48.17;97891.20;114463;1218;137386;-86
2021/08/26 07:56:05;;;;;;;0.30;0.30;;;;;;;19.78;47.73;97890.93;114365;1215;137508;-85
2021/08/26 07:58:31;;;;;;;0.30;0.30;;;;;;;19.85;47.36;97887.00;114556;1221;22139;-85
2021/08/26 08:00:58;;;;;;;0.30;0.30;;;;;;;19.93;47.45;97885.23;114472;1217;137201;-85
2021/08/26 08:03:23;;;;;;;0.30;0.30;;;;;;;20.08;47.35;97893.51;114360;1222;137892;-85
2021/08/26 08:05:49;;;;;;;0.20;0.20;;;;;;;20.15;46.64;97887.83;114429;1217;138708;-84
2021/08/26 08:08:14;;;;;;;0.30;0.30;;;;;;;20.23;46.71;97886.85;114383;1218;137711;-84
2021/08/26 08:10:40;;;;;;;0.20;0.20;;;;;;;20.32;46.38;97887.89;114497;1221;22322;-84
2021/08/26 08:13:05;;;;;;;0.30;0.30;;;;;;;20.39;46.46;97884.40;114506;1218;137148;-84
2021/08/26 08:15:31;;;;;;;0.20;0.20;;;;;;;20.47;47.08;97884.98;114391;1217;137875;-84
2021/08/26 08:17:57;;;;;;;0.20;0.20;;;;;;;20.55;46.55;97884.55;114320;1218;137651;-83
2021/08/26 08:20:23;;;;;;;0.30;0.30;;;;;;;20.64;46.27;97890.28;114420;1215;138715;-81
2021/08/26 08:22:49;;;;;;;0.20;0.20;;;;;;;20.71;45.77;97887.09;114386;1217;137660;-84
2021/08/26 08:25:15;;;;;;;0.30;0.30;;;;;;;20.77;45.62;97891.88;114536;1221;22333;-83
2021/08/26 08:27:40;;;;;;;0.30;0.30;;;;;;;20.82;44.96;97887.42;114296;1217;137522;-83
2021/08/26 08:30:07;;;;;;;0.20;0.20;;;;;;;20.94;44.79;97888.30;114470;1217;138451;-83
2021/08/26 08:32:32;;;;;;;0.30;0.30;;;;;;;21.06;44.52;97887.91;114355;1218;137818;-81
2021/08/26 08:34:58;;;;;;;0.40;0.40;;;;;;;21.12;44.27;97885.80;114375;1222;137645;-81
2021/08/26 08:37:23;;;;;;;0.30;0.30;;;;;;;21.20;44.14;97886.75;114456;1224;23068;-81
2021/08/26 08:39:49;;;;;;;0.30;0.30;;;;;;;21.23;43.77;97886.44;114352;1217;137558;-81
2021/08/26 08:42:14;;;;;;;0.20;0.20;;;;;;;21.23;43.42;97889.09;114367;1218;137901;-81
2021/08/26 08:44:40;;;;;;;0.30;0.30;;;;;;;21.26;43.62;97888.78;114452;1217;137470;-85
2021/08/26 08:47:09;;;;;;;0.30;0.30;;;;;;;21.29;43.50;97884.23;114357;1221;137588;-85
2021/08/26 08:49:39;;;;;;;0.30;0.30;;;;;;;21.35;43.72;97884.11;114510;1222;22334;-85
2021/08/26 08:52:06;;;;;;;0.30;0.30;;;;;;;21.38;43.36;97878.70;114351;1218;136978;-86
2021/08/26 08:54:31;;;;;;;0.30;0.30;;;;;;;21.46;43.70;97874.94;114373;1218;137399;-85
2021/08/26 08:56:57;;;;;;;0.30;0.30;;;;;;;21.55;43.25;97871.09;114418;1218;138019;-85
2021/08/26 08:59:22;;;;;;;0.30;0.30;;;;;;;21.66;43.08;97867.86;114360;1221;137978;-85
2021/08/26 09:01:52;;;;;;;0.30;0.30;;;;;;;21.73;42.29;97868.62;114447;1218;137428;-85
2021/08/26 09:04:18;;;;;;;0.40;0.40;;;;;;;21.74;41.70;97863.14;114494;1221;22367;-85
2021/08/26 09:06:44;;;;;;;0.30;0.30;;;;;;;21.80;41.92;97856.94;114300;1220;137192;-85
2021/08/26 09:09:11;;;;;;;0.30;0.30;;;;;;;21.89;41.79;97857.92;114431;1218;137332;-87
2021/08/26 09:11:47;;;;;;;0.20;0.20;;;;;;;21.95;40.92;97859.85;114326;1221;139489;-85
2021/08/26 09:14:14;;;;;;;0.20;0.20;;;;;;;22.00;40.80;97861.64;114436;1215;137592;-85
2021/08/26 09:16:43;;;;;;;0.30;0.30;;;;;;;21.99;41.03;97854.13;114456;1221;22321;-86
2021/08/26 09:19:31;;;;;;;0.30;0.30;;;;;;;22.03;40.72;97855.67;114313;1220;137088;-87
2021/08/26 09:21:59;;;;;;;0.30;0.30;;;;;;;22.02;40.25;97858.42;114394;1218;137321;-85
2021/08/26 09:24:46;;;;;;;0.40;0.40;;;;;;;22.05;40.26;97862.80;114377;1215;137742;-85
2021/08/26 09:27:12;;;;;;;0.40;0.40;;;;;;;22.13;40.11;97860.11;114145;1218;137411;-84
2021/08/26 09:30:03;;;;;;;0.30;0.30;;;;;;;22.17;39.89;97862.54;114267;1215;137506;-86
2021/08/26 09:32:58;;;;;;;0.30;0.30;;;;;;;22.17;39.84;97861.36;114423;1216;137547;-85
2021/08/26 09:35:29;;;;;;;0.30;0.30;;;;;;;22.18;39.51;97859.56;114344;1218;137706;-83
2021/08/26 09:37:57;;;;;;;0.40;0.40;;;;;;;22.21;39.68;97860.33;114380;1217;138512;-84
2021/08/26 09:40:28;;;;;;;0.40;0.40;;;;;;;22.34;40.38;97859.95;114598;1217;22261;-86
2021/08/26 09:43:06;;;;;;;0.30;0.30;;;;;;;22.54;40.31;97859.84;114306;1220;137487;-86
2021/08/26 09:45:47;;;;;;;0.30;0.30;;;;;;;22.73;40.27;97859.17;114463;1214;137578;-85
2021/08/26 09:48:15;;;;;;;0.30;0.30;;;;;;;22.88;39.57;97855.55;114290;1218;137634;-86
2021/08/26 09:50:53;;;;;;;0.40;0.40;;;;;;;23.00;38.96;97854.70;114334;1218;137890;-85
2021/08/26 09:53:32;;;;;;;0.40;0.40;;;;;;;23.09;39.17;97854.46;114320;1219;138134;-85
2021/08/26 09:56:06;;;;;;;0.40;0.40;;;;;;;23.28;39.07;97852.25;114305;1217;137760;-85
2021/08/26 09:58:34;;;;;;;0.30;0.30;;;;;;;23.43;38.20;97853.38;114395;1221;22398;-85
2021/08/26 10:01:14;;;;;;;0.30;0.30;;;;;;;23.44;38.30;97860.11;114250;1218;137371;-86
2021/08/26 10:03:40;;;;;;;0.30;0.30;;;;;;;23.50;38.24;97857.45;114253;1218;137526;-85
2021/08/26 10:06:06;;;;;;;0.40;0.40;;;;;;;23.56;37.94;97854.26;114254;1219;137995;-86
2021/08/26 10:08:33;;;;;;;0.30;0.30;;;;;;;23.60;37.90;97851.31;114245;1217;137474;-85
2021/08/26 10:11:02;;;;;;;0.30;0.30;;;;;;;23.58;37.33;97850.63;114238;1217;137633;-85
2021/08/26 10:13:31;;;;;;;0.30;0.30;;;;;;;23.52;36.82;97851.63;114361;1218;22325;-85
2021/08/26 10:15:58;;;;;;;0.30;0.30;;;;;;;23.55;37.18;97847.83;114261;1224;137592;-86
2021/08/26 10:18:24;;;;;;;0.30;0.30;;;;;;;23.67;37.08;97847.89;114256;1218;137654;-86
2021/08/26 10:20:50;;;;;;;0.30;0.30;;;;;;;23.70;36.74;97844.58;114258;1226;137424;-85
2021/08/26 10:23:16;;;;;;;0.30;0.30;;;;;;;23.78;36.58;97839.29;114290;1218;137564;-85
2021/08/26 10:25:44;;;;;;;0.40;0.40;;;;;;;23.88;36.54;97839.88;114416;1225;22373;-85
2021/08/26 10:28:10;;;;;;;0.40;0.40;;;;;;;24.00;36.27;97838.80;114286;1221;137329;-85
2021/08/26 10:30:41;;;;;;;0.30;0.30;;;;;;;24.14;35.97;97844.36;114245;1218;138015;-85
2021/08/26 10:33:08;;;;;;;0.40;0.40;;;;;;;24.22;35.39;97842.84;114257;1218;137857;-85
2021/08/26 10:35:34;;;;;;;0.30;0.30;;;;;;;24.24;35.63;97840.53;114251;1221;137688;-85
2021/08/26 10:38:00;;;;;;;0.30;0.30;;;;;;;24.25;35.72;97840.43;114229;1218;137777;-85
2021/08/26 10:40:26;;;;;;;0.50;0.50;;;;;;;24.27;35.84;97837.50;114392;1227;22347;-86
2021/08/26 10:42:52;;;;;;;0.40;0.40;;;;;;;24.32;35.54;97834.46;114322;1216;137774;-86
2021/08/26 10:45:34;;;;;;;0.30;0.30;;;;;;;24.33;35.48;97838.45;114276;1219;137440;-86
2021/08/26 10:48:12;;;;;;;0.40;0.40;;;;;;;24.40;35.67;97839.71;114269;1217;137354;-85
2021/08/26 10:50:39;;;;;;;0.30;0.30;;;;;;;24.51;35.84;97838.23;114221;1218;138073;-91
2021/08/26 10:53:10;;;;;;;0.40;0.40;;;;;;;24.57;35.12;97837.27;114244;1218;137982;-85
2021/08/26 10:55:48;;;;;;;0.40;0.40;;;;;;;24.68;35.47;97834.51;114364;1222;22271;-85
2021/08/26 10:58:16;;;;;;;0.30;0.30;;;;;;;24.93;35.49;97836.63;114441;1225;22388;-86
2021/08/26 11:00:43;;;;;;;0.50;0.50;;;;;;;25.09;35.13;97837.67;114462;1216;137567;-86
2021/08/26 11:03:09;;;;;;;0.30;0.30;;;;;;;25.25;33.90;97838.52;114295;1220;137365;-86
2021/08/26 11:05:37;;;;;;;0.20;0.20;;;;;;;25.27;33.53;97836.04;114341;1218;137790;-84
2021/08/26 11:08:25;;;;;;;0.30;0.30;;;;;;;25.15;33.89;97829.93;114371;1215;137774;-84
2021/08/26 11:10:51;;;;;;;0.30;0.30;;;;;;;25.11;33.70;97825.98;114429;1217;137694;-84
2021/08/26 11:13:43;;;;;;;0.50;0.50;;;;;;;25.10;33.25;97828.44;114463;1223;23211;-84
2021/08/26 11:16:23;;;;;;;0.40;0.40;;;;;;;25.06;33.12;97824.30;114409;1222;137479;-84
2021/08/26 11:19:04;;;;;;;;;;;;;;;24.94;33.00;97826.80;114449;1217;138002;-84
2021/08/26 11:21:45;;;;;;;0.40;0.40;;;;;;;24.80;33.74;97827.02;114377;1217;124157;-84
2021/08/26 11:24:16;;;;;;;0.30;0.30;;;;;;;24.81;33.39;97823.78;114301;1217;137693;-85
2021/08/26 11:27:18;;;;;;;0.40;0.40;;;;;;;24.77;33.63;97819.98;114493;1217;137876;-84